Time;durP1;ratioP1;P1;durP2;ratioP2;P2;SDS_P1;SDS_P2;PMS_P1;PMS_P2;Temp;Humidity;BMP_temperature;BMP_pressure;BME280_temperature;BME280_humidity;BME280_pressure;Samples;Min_cycle;Max_cycle;Signal;HPM_P1;HPM_P2
2024/04/23 00:01:35;;;;;;;12.68;6.18;;;1.90;99.90;;;;;;5368765;26;20071;-59
2024/04/23 00:04:01;;;;;;;13.60;5.75;;;1.90;99.90;;;;;;5367809;26;19992;-58
2024/04/23 00:06:26;;;;;;;10.10;5.85;;;2.00;99.90;;;;;;5367555;26;20052;-59
2024/04/23 00:08:52;;;;;;;17.80;6.30;;;2.00;99.90;;;;;;5364640;26;19992;-59
2024/04/23 00:11:18;;;;;;;8.27;5.47;;;2.10;99.90;;;;;;5367076;26;19996;-57
2024/04/23 00:13:43;;;;;;;7.80;4.80;;;2.10;99.90;;;;;;5371018;26;20079;-59
2024/04/23 00:16:09;;;;;;;12.30;5.97;;;2.20;99.90;;;;;;5369905;26;20066;-58
2024/04/23 00:18:34;;;;;;;11.48;5.05;;;2.20;99.90;;;;;;5371799;26;20458;-58
2024/04/23 00:21:00;;;;;;;8.60;4.95;;;2.30;99.90;;;;;;5356461;26;20012;-57
2024/04/23 00:23:25;;;;;;;8.15;5.30;;;2.30;99.90;;;;;;5378237;26;20001;-58
2024/04/23 00:25:51;;;;;;;8.43;5.40;;;2.30;99.90;;;;;;5380950;26;20012;-59
2024/04/23 00:28:17;;;;;;;10.77;5.65;;;2.30;99.90;;;;;;5372049;26;20054;-57
2024/04/23 00:30:42;;;;;;;10.27;4.47;;;2.30;99.90;;;;;;5376546;26;20483;-58
2024/04/23 00:33:08;;;;;;;9.70;4.70;;;2.20;99.90;;;;;;5371613;26;20401;-58
2024/04/23 00:35:34;;;;;;;8.95;5.05;;;2.20;99.90;;;;;;5371649;26;20008;-57
2024/04/23 00:38:00;;;;;;;9.48;5.43;;;2.10;99.90;;;;;;5375454;26;20054;-58
2024/04/23 00:40:29;;;;;;;6.90;4.05;;;2.00;99.90;;;;;;5374709;26;19996;-58
2024/04/23 00:42:56;;;;;;;7.15;4.53;;;1.90;99.90;;;;;;5375927;26;19996;-58
2024/04/23 00:45:24;;;;;;;8.48;4.82;;;1.80;99.90;;;;;;5368547;26;19996;-58
2024/04/23 00:47:50;;;;;;;8.27;4.63;;;1.70;99.90;;;;;;5375387;26;20090;-57
2024/04/23 00:50:16;;;;;;;7.65;3.92;;;1.70;99.90;;;;;;5375177;26;19996;-58
2024/04/23 00:52:42;;;;;;;8.93;5.53;;;1.70;99.90;;;;;;5376247;26;20059;-59
2024/04/23 00:55:11;;;;;;;10.07;4.72;;;1.80;99.90;;;;;;5378939;26;20014;-58
2024/04/23 00:57:38;;;;;;;11.55;5.35;;;1.80;99.90;;;;;;5372718;26;20008;-59
2024/04/23 01:00:05;;;;;;;9.80;5.45;;;1.70;99.90;;;;;;5377843;26;20007;-60
2024/04/23 01:02:31;;;;;;;9.18;5.25;;;1.70;99.90;;;;;;5376172;26;20015;-59
2024/04/23 01:04:56;;;;;;;10.18;5.00;;;1.70;99.90;;;;;;5374456;26;19996;-60
2024/04/23 01:07:22;;;;;;;9.60;4.60;;;1.60;99.90;;;;;;5378409;26;20004;-61
2024/04/23 01:09:47;;;;;;;9.82;5.35;;;1.60;99.90;;;;;;5373713;26;20044;-59
2024/04/23 01:12:13;;;;;;;7.63;4.68;;;1.50;99.90;;;;;;5377223;26;20015;-60
2024/04/23 01:14:41;;;;;;;9.02;4.78;;;1.60;99.90;;;;;;5375887;26;20010;-60
2024/04/23 01:17:09;;;;;;;16.50;5.00;;;1.50;99.90;;;;;;5372620;26;20346;-60
2024/04/23 01:19:44;;;;;;;16.23;6.07;;;1.50;99.90;;;;;;5371780;26;20057;-60
2024/04/23 01:22:24;;;;;;;8.85;4.72;;;1.50;99.90;;;;;;5349963;26;20012;-61
2024/04/23 01:24:58;;;;;;;10.63;4.53;;;1.50;99.90;;;;;;5376674;26;20020;-60
2024/04/23 01:27:24;;;;;;;9.27;5.07;;;1.50;99.90;;;;;;5369800;26;20008;-59
2024/04/23 01:29:50;;;;;;;7.00;4.22;;;1.50;99.90;;;;;;5376098;26;20315;-60
2024/04/23 01:32:18;;;;;;;7.72;5.35;;;1.50;99.90;;;;;;5376409;26;20374;-60
2024/04/23 01:34:44;;;;;;;9.63;4.30;;;1.40;99.90;;;;;;5377174;26;20018;-61
2024/04/23 01:37:10;;;;;;;8.48;4.10;;;1.40;99.90;;;;;;5371833;26;20355;-59
2024/04/23 01:39:37;;;;;;;10.93;4.75;;;1.40;99.90;;;;;;5374463;26;20014;-59
2024/04/23 01:42:03;;;;;;;12.02;4.25;;;1.30;99.90;;;;;;5378027;26;20342;-60
2024/04/23 01:44:30;;;;;;;7.65;4.13;;;1.30;99.90;;;;;;5374968;26;20004;-59
2024/04/23 01:46:56;;;;;;;14.48;4.30;;;1.30;99.90;;;;;;5378723;26;20000;-60
2024/04/23 01:49:22;;;;;;;7.90;4.40;;;1.30;99.90;;;;;;5378654;26;20022;-60
2024/04/23 01:51:47;;;;;;;7.45;4.18;;;1.30;99.90;;;;;;5377095;26;20005;-60
2024/04/23 01:54:13;;;;;;;8.52;4.53;;;1.30;99.90;;;;;;5378139;26;20011;-60
2024/04/23 01:56:38;;;;;;;7.07;4.53;;;1.20;99.90;;;;;;5378171;26;20459;-60
2024/04/23 01:59:04;;;;;;;8.30;4.50;;;1.30;99.90;;;;;;5369282;26;20174;-60
2024/04/23 02:01:34;;;;;;;11.38;4.50;;;1.30;99.90;;;;;;5372622;26;20441;-60
2024/04/23 02:04:00;;;;;;;7.72;4.05;;;1.30;99.90;;;;;;5379429;26;20107;-59
2024/04/23 02:06:27;;;;;;;9.02;4.53;;;1.20;99.90;;;;;;5379428;26;19997;-59
2024/04/23 02:08:53;;;;;;;7.72;4.18;;;1.20;99.90;;;;;;5376331;26;20000;-59
2024/04/23 02:11:19;;;;;;;11.68;4.80;;;1.20;99.90;;;;;;5372029;26;20596;-60
2024/04/23 02:13:44;;;;;;;9.23;4.90;;;1.20;99.90;;;;;;5376980;26;19996;-59
2024/04/23 02:16:10;;;;;;;10.35;4.55;;;1.10;99.90;;;;;;5375852;26;19996;-59
2024/04/23 02:18:35;;;;;;;6.40;4.00;;;1.10;99.90;;;;;;5377277;26;20019;-60
2024/04/23 02:21:01;;;;;;;7.68;4.85;;;1.10;99.90;;;;;;5373543;26;20044;-60
2024/04/23 02:23:26;;;;;;;10.80;4.45;;;1.00;99.90;;;;;;5356230;26;20012;-59
2024/04/23 02:25:52;;;;;;;8.73;4.28;;;1.00;99.90;;;;;;5367929;26;20011;-60
2024/04/23 02:28:17;;;;;;;7.30;3.92;;;0.90;99.90;;;;;;5371646;26;20324;-59
2024/04/23 02:30:43;;;;;;;8.23;4.57;;;0.90;99.90;;;;;;5373940;26;20004;-60
2024/04/23 02:33:11;;;;;;;9.48;4.50;;;0.80;99.90;;;;;;5375372;26;19996;-60
2024/04/23 02:35:40;;;;;;;11.48;5.18;;;0.70;99.90;;;;;;5365617;26;20086;-60
2024/04/23 02:38:05;;;;;;;8.45;4.88;;;0.70;99.90;;;;;;5371712;26;20069;-60
2024/04/23 02:40:31;;;;;;;7.28;4.20;;;0.70;99.90;;;;;;5369541;26;21749;-60
2024/04/23 02:42:57;;;;;;;8.15;4.50;;;0.70;99.90;;;;;;5367330;26;20435;-58
2024/04/23 02:45:22;;;;;;;11.07;5.20;;;0.70;99.90;;;;;;5364961;26;20077;-59
2024/04/23 02:47:48;;;;;;;8.40;5.45;;;0.70;99.90;;;;;;5366975;26;20004;-59
2024/04/23 02:50:14;;;;;;;10.23;4.80;;;0.60;99.90;;;;;;5368492;26;20015;-59
2024/04/23 02:52:39;;;;;;;9.35;4.18;;;0.60;99.90;;;;;;5371348;26;20011;-57
2024/04/23 02:55:05;;;;;;;10.80;4.93;;;0.60;99.90;;;;;;5367150;26;20000;-60
2024/04/23 02:57:30;;;;;;;7.22;4.40;;;0.60;99.90;;;;;;5368384;26;20033;-60
2024/04/23 02:59:56;;;;;;;6.75;4.55;;;0.50;99.90;;;;;;5366683;26;20001;-60
2024/04/23 03:02:22;;;;;;;9.68;5.53;;;0.50;99.90;;;;;;5368297;26;20000;-59
2024/04/23 03:04:47;;;;;;;7.43;4.43;;;0.50;99.90;;;;;;5372328;26;20439;-59
2024/04/23 03:07:13;;;;;;;9.38;4.75;;;0.50;99.90;;;;;;5374444;26;20000;-59
2024/04/23 03:09:38;;;;;;;8.73;5.15;;;0.50;99.90;;;;;;5372843;26;20008;-60
2024/04/23 03:12:04;;;;;;;9.40;4.03;;;0.40;99.90;;;;;;5379569;26;19996;-60
2024/04/23 03:14:30;;;;;;;10.27;5.40;;;0.40;99.90;;;;;;5364801;26;20422;-59
2024/04/23 03:16:55;;;;;;;10.85;5.18;;;0.30;99.90;;;;;;5377556;26;20028;-60
2024/04/23 03:19:22;;;;;;;9.52;5.18;;;0.30;99.90;;;;;;5376349;26;20365;-59
2024/04/23 03:21:53;;;;;;;9.52;5.07;;;0.20;99.90;;;;;;5375481;26;20000;-60
2024/04/23 03:24:18;;;;;;;7.32;4.50;;;0.20;99.90;;;;;;5354650;26;20004;-59
2024/04/23 03:26:44;;;;;;;11.20;5.32;;;0.20;99.90;;;;;;5373883;26;20007;-60
2024/04/23 03:29:09;;;;;;;10.18;5.45;;;0.20;99.90;;;;;;5375488;26;20067;-60
2024/04/23 03:31:35;;;;;;;7.82;4.53;;;0.20;99.90;;;;;;5375826;26;20338;-59
2024/04/23 03:34:00;;;;;;;6.88;4.57;;;0.20;99.90;;;;;;5373325;26;20334;-59
2024/04/23 03:36:26;;;;;;;11.10;4.80;;;0.20;99.90;;;;;;5375353;26;20439;-59
2024/04/23 03:38:51;;;;;;;9.43;4.72;;;0.10;99.90;;;;;;5372806;26;20007;-59
2024/04/23 03:41:17;;;;;;;8.70;5.05;;;0.00;99.90;;;;;;5374251;26;20008;-59
2024/04/23 03:43:42;;;;;;;11.40;5.53;;;0.00;99.90;;;;;;5370929;26;20008;-59
2024/04/23 03:46:08;;;;;;;9.43;5.07;;;-0.10;99.90;;;;;;5372013;26;20000;-60
2024/04/23 03:48:34;;;;;;;12.60;6.63;;;-0.10;99.90;;;;;;5384053;26;20019;-60
2024/04/23 03:50:59;;;;;;;9.90;5.35;;;-0.20;99.90;;;;;;5377550;26;20012;-59
2024/04/23 03:53:25;;;;;;;11.77;6.07;;;-0.20;99.90;;;;;;5374945;26;20412;-60
2024/04/23 03:55:50;;;;;;;7.85;4.40;;;-0.20;99.90;;;;;;5373546;26;20019;-58
2024/04/23 03:58:16;;;;;;;12.20;4.50;;;-0.10;99.90;;;;;;5373980;26;19996;-60
2024/04/23 04:00:41;;;;;;;8.40;5.15;;;-0.20;99.90;;;;;;5373724;26;20000;-60
2024/04/23 04:06:03;;;;;;;10.35;5.15;;;-0.20;99.90;;;;;;5375028;26;20007;-60
2024/04/23 04:08:30;;;;;;;11.70;5.65;;;-0.30;99.90;;;;;;5374075;26;20015;-61
2024/04/23 04:10:55;;;;;;;13.23;5.60;;;-0.20;99.90;;;;;;5370366;26;20043;-61
2024/04/23 04:13:21;;;;;;;17.00;6.25;;;-0.20;99.90;;;;;;5373412;26;20480;-61
2024/04/23 04:15:47;;;;;;;10.30;5.90;;;-0.10;99.90;;;;;;5372478;26;20000;-61
2024/04/23 04:18:12;;;;;;;11.52;6.38;;;-0.10;99.90;;;;;;5374582;26;19996;-60
2024/04/23 04:20:38;;;;;;;11.80;6.40;;;-0.10;99.90;;;;;;5372480;26;20011;-60
2024/04/23 04:23:03;;;;;;;12.27;7.07;;;-0.10;99.90;;;;;;5350023;26;20004;-60
2024/04/23 04:25:29;;;;;;;11.15;6.45;;;-0.10;99.90;;;;;;5362799;26;20019;-61
2024/04/23 04:27:55;;;;;;;14.75;5.63;;;-0.20;99.90;;;;;;5373952;26;20008;-60
2024/04/23 04:30:20;;;;;;;9.40;5.38;;;-0.20;99.90;;;;;;5377845;26;20004;-60
2024/04/23 04:32:46;;;;;;;12.18;5.30;;;-0.20;99.90;;;;;;5374927;26;20011;-60
2024/04/23 04:35:11;;;;;;;11.00;5.22;;;-0.10;99.90;;;;;;5379859;26;20000;-61
2024/04/23 04:37:37;;;;;;;11.85;5.35;;;-0.10;99.90;;;;;;5376573;26;20330;-61
2024/04/23 04:40:03;;;;;;;10.55;6.13;;;-0.10;99.90;;;;;;5380093;26;20354;-60
2024/04/23 04:42:28;;;;;;;7.72;5.35;;;-0.10;99.90;;;;;;5381341;26;20341;-61
2024/04/23 04:44:54;;;;;;;13.57;6.50;;;-0.10;99.90;;;;;;5381002;26;20049;-61
2024/04/23 04:47:19;;;;;;;11.68;6.55;;;-0.10;99.90;;;;;;5380370;26;20000;-61
2024/04/23 04:49:45;;;;;;;13.70;6.65;;;0.00;99.90;;;;;;5382593;26;20004;-61
2024/04/23 04:52:10;;;;;;;12.63;6.47;;;0.00;99.90;;;;;;5375958;26;19992;-61
2024/04/23 04:54:36;;;;;;;11.32;6.07;;;0.00;99.90;;;;;;5381804;26;20082;-61
2024/04/23 04:57:01;;;;;;;13.52;5.93;;;0.10;99.90;;;;;;5382619;26;20342;-60
2024/04/23 04:59:27;;;;;;;12.88;5.93;;;0.10;99.90;;;;;;5375062;26;20016;-61
2024/04/23 05:01:53;;;;;;;14.35;5.97;;;0.10;99.90;;;;;;5374843;26;20574;-60
2024/04/23 05:04:18;;;;;;;12.77;5.85;;;0.20;99.90;;;;;;5371595;26;20458;-61
2024/04/23 05:06:44;;;;;;;10.05;5.40;;;0.40;99.90;;;;;;5376682;26;20330;-61
2024/04/23 05:09:09;;;;;;;7.97;3.97;;;0.70;99.90;;;;;;5377549;26;20458;-61
2024/04/23 05:11:35;;;;;;;7.93;4.35;;;1.10;99.90;;;;;;5379301;26;19996;-61
2024/04/23 05:14:01;;;;;;;8.05;4.28;;;1.60;99.90;;;;;;5376513;26;20731;-61
2024/04/23 05:16:27;;;;;;;6.28;3.90;;;2.00;99.90;;;;;;5377114;26;20456;-62
2024/04/23 05:18:52;;;;;;;10.07;4.32;;;2.40;99.90;;;;;;5374943;26;20011;-61
2024/04/23 05:21:18;;;;;;;9.13;3.85;;;2.80;99.90;;;;;;5379097;26;20004;-62
2024/04/23 05:23:43;;;;;;;8.23;4.32;;;3.30;99.90;;;;;;5350868;26;20005;-62
2024/04/23 05:26:09;;;;;;;6.78;3.80;;;3.90;99.90;;;;;;5402744;26;20004;-61
2024/04/23 05:28:34;;;;;;;8.43;5.00;;;4.30;99.90;;;;;;5375092;26;20018;-61
2024/04/23 05:33:44;;;;;;;7.15;3.28;;;5.70;99.90;;;;;;5375136;26;20385;-62
2024/04/23 05:36:10;;;;;;;6.63;3.50;;;5.70;99.90;;;;;;5372622;26;20044;-62
2024/04/23 05:38:35;;;;;;;6.65;2.72;;;6.20;99.90;;;;;;5370015;26;19997;-62
2024/04/23 05:41:01;;;;;;;5.03;2.75;;;6.00;99.90;;;;;;5369687;26;20008;-62
2024/04/23 05:43:27;;;;;;;4.35;2.83;;;6.20;99.90;;;;;;5374064;26;20011;-62
2024/04/23 05:45:52;;;;;;;4.97;3.17;;;6.40;99.90;;;;;;5378607;26;20000;-62
2024/04/23 05:48:55;;;;;;;4.10;2.70;;;6.50;99.90;;;;;;5374997;26;20032;-62
2024/04/23 05:51:58;;;;;;;4.15;2.63;;;7.40;99.90;;;;;;5373058;26;19997;-62
2024/04/23 05:55:01;;;;;;;5.55;2.83;;;8.20;99.90;;;;;;5368619;26;20013;-62
2024/04/23 05:57:27;;;;;;;7.30;3.03;;;8.30;99.90;;;;;;5368829;26;20550;-62
2024/04/23 05:59:53;;;;;;;5.80;2.95;;;8.00;99.20;;;;;;5368308;26;20066;-62
2024/04/23 06:02:18;;;;;;;4.22;2.70;;;7.90;99.80;;;;;;5364439;26;20000;-62
2024/04/23 06:04:44;;;;;;;3.75;2.22;;;7.70;99.90;;;;;;5366211;26;20012;-62
2024/04/23 06:07:10;;;;;;;3.55;2.42;;;8.20;99.60;;;;;;5366599;26;20400;-63
2024/04/23 06:09:35;;;;;;;6.00;2.40;;;9.30;98.50;;;;;;5368021;26;20018;-61
2024/04/23 06:12:01;;;;;;;3.70;2.60;;;10.00;97.40;;;;;;5367191;26;20000;-61
2024/04/23 06:14:26;;;;;;;4.15;2.70;;;11.70;94.30;;;;;;5369036;26;20093;-61
2024/04/23 06:17:24;;;;;;;6.07;2.90;;;11.70;93.40;;;;;;5372545;26;19996;-62
2024/04/23 06:19:50;;;;;;;4.13;3.00;;;12.00;93.30;;;;;;5374408;26;20008;-62
2024/04/23 06:22:27;;;;;;;6.55;2.78;;;12.60;92.30;;;;;;5372589;26;20008;-62
2024/04/23 06:24:54;;;;;;;3.47;2.60;;;12.80;91.60;;;;;;5357764;26;20012;-61
2024/04/23 06:27:24;;;;;;;2.80;2.20;;;12.90;90.80;;;;;;5368283;26;20015;-64
2024/04/23 06:29:53;;;;;;;7.15;2.75;;;13.70;89.10;;;;;;5377901;26;20026;-63
2024/04/23 06:32:20;;;;;;;6.40;2.40;;;13.80;89.20;;;;;;5369097;26;19992;-62
2024/04/23 06:34:47;;;;;;;4.70;2.80;;;13.70;88.20;;;;;;5373062;26;19996;-61
2024/04/23 06:37:13;;;;;;;3.38;2.00;;;13.50;84.70;;;;;;5368198;26;20006;-61
2024/04/23 06:39:40;;;;;;;11.00;2.58;;;14.40;81.80;;;;;;5367932;26;20008;-61
2024/04/23 06:42:05;;;;;;;2.85;1.83;;;14.70;83.60;;;;;;5365505;26;20008;-61
2024/04/23 06:44:31;;;;;;;4.35;2.10;;;14.80;79.80;;;;;;5367823;26;20047;-61
2024/04/23 06:46:58;;;;;;;3.78;2.35;;;15.50;81.60;;;;;;5367825;26;20014;-61
2024/04/23 06:49:24;;;;;;;4.68;1.90;;;15.60;79.30;;;;;;5369290;26;20100;-61
2024/04/23 06:51:50;;;;;;;2.63;1.90;;;15.90;77.00;;;;;;5369871;26;20003;-63
2024/04/23 06:54:15;;;;;;;4.15;2.03;;;15.70;75.10;;;;;;5371028;26;20000;-61
2024/04/23 06:56:42;;;;;;;3.10;2.30;;;15.60;75.80;;;;;;5396306;21;20000;-60
2024/04/23 06:59:07;;;;;;;5.70;1.80;;;16.00;73.60;;;;;;5361830;26;20022;-61
2024/04/23 07:01:33;;;;;;;2.15;1.58;;;16.00;72.80;;;;;;5375225;26;20000;-61
2024/04/23 07:03:59;;;;;;;4.43;1.58;;;17.10;73.90;;;;;;5372878;26;20004;-61
2024/04/23 07:06:25;;;;;;;2.60;1.75;;;16.80;71.60;;;;;;5376100;26;20078;-60
2024/04/23 07:08:51;;;;;;;2.95;1.88;;;18.00;73.40;;;;;;5361398;26;20077;-61
2024/04/23 07:11:17;;;;;;;2.78;1.60;;;19.10;69.30;;;;;;5370710;26;20016;-61
2024/04/23 07:13:45;;;;;;;1.73;1.50;;;18.30;67.50;;;;;;5362008;26;20027;-61
2024/04/23 07:16:11;;;;;;;2.25;1.75;;;17.50;68.90;;;;;;5366305;26;20035;-61
2024/04/23 07:18:36;;;;;;;3.58;1.55;;;17.70;66.20;;;;;;5377116;26;20007;-61
2024/04/23 07:21:02;;;;;;;2.55;1.80;;;18.40;67.50;;;;;;5369151;26;20435;-61
2024/04/23 07:23:28;;;;;;;2.90;2.00;;;19.20;66.20;;;;;;5312852;26;20427;-61
2024/04/23 07:25:53;;;;;;;3.58;1.73;;;18.40;65.40;;;;;;5324650;26;20110;-61
2024/04/23 07:28:20;;;;;;;4.03;1.70;;;18.20;64.80;;;;;;5298679;26;20447;-61
2024/04/23 07:30:45;;;;;;;7.28;2.28;;;18.60;65.40;;;;;;5336508;26;20001;-61
2024/04/23 07:33:11;;;;;;;3.85;1.50;;;20.10;62.60;;;;;;5355881;26;20018;-64
2024/04/23 07:35:37;;;;;;;2.95;1.98;;;20.60;61.40;;;;;;5359120;26;20342;-62
2024/04/23 07:38:08;;;;;;;2.75;1.70;;;20.10;60.00;;;;;;5367320;26;19992;-61
2024/04/23 07:40:34;;;;;;;2.95;1.70;;;19.50;59.00;;;;;;5366666;26;20000;-62
2024/04/23 07:43:00;;;;;;;3.83;1.95;;;19.10;61.20;;;;;;5358855;26;20358;-61
2024/04/23 07:45:25;;;;;;;2.00;1.60;;;18.70;61.00;;;;;;5368231;26;20015;-62
2024/04/23 07:47:51;;;;;;;1.85;1.50;;;19.00;61.60;;;;;;5363962;26;20007;-61
2024/04/23 07:50:16;;;;;;;3.33;2.03;;;18.70;60.50;;;;;;5357385;26;19997;-61
2024/04/23 07:52:42;;;;;;;2.95;1.35;;;19.00;59.60;;;;;;5331000;26;20000;-61
2024/04/23 07:55:07;;;;;;;1.90;1.20;;;18.30;58.80;;;;;;5362464;26;20102;-60
2024/04/23 07:57:33;;;;;;;4.28;1.80;;;17.80;59.80;;;;;;5370356;26;20337;-63
2024/04/23 07:59:58;;;;;;;2.85;1.60;;;17.80;60.60;;;;;;5356186;26;20009;-63
2024/04/23 08:02:25;;;;;;;3.80;2.40;;;17.50;61.20;;;;;;5364328;26;20004;-63
2024/04/23 08:04:51;;;;;;;2.10;1.50;;;17.40;61.80;;;;;;5364341;26;19997;-61
2024/04/23 08:07:17;;;;;;;3.45;1.88;;;17.50;60.90;;;;;;5353446;26;22738;-63
2024/04/23 08:09:43;;;;;;;3.85;1.95;;;17.60;61.30;;;;;;5366798;26;20401;-63
2024/04/23 08:12:08;;;;;;;2.90;1.67;;;18.40;61.20;;;;;;5358523;26;20216;-63
2024/04/23 08:14:34;;;;;;;3.28;1.80;;;19.60;61.10;;;;;;5359719;26;20015;-61
2024/04/23 08:16:59;;;;;;;5.40;1.60;;;18.70;61.00;;;;;;5372542;26;20004;-61
2024/04/23 08:19:25;;;;;;;4.13;1.80;;;19.50;60.30;;;;;;5368715;26;20000;-61
2024/04/23 08:21:50;;;;;;;2.72;1.60;;;20.60;58.50;;;;;;5369875;26;20011;-63
2024/04/23 08:24:16;;;;;;;2.22;1.40;;;21.00;53.70;;;;;;5311876;26;20009;-63
2024/04/23 08:26:41;;;;;;;4.85;1.60;;;19.80;56.60;;;;;;5361951;26;20011;-63
2024/04/23 08:29:07;;;;;;;3.20;1.70;;;19.50;58.40;;;;;;5344884;26;20000;-61
2024/04/23 08:31:32;;;;;;;2.97;1.70;;;19.90;57.10;;;;;;5365879;26;20012;-61
2024/04/23 08:33:59;;;;;;;1.83;1.52;;;20.10;54.50;;;;;;5358277;26;20450;-61
2024/04/23 08:36:25;;;;;;;4.55;2.03;;;20.70;54.90;;;;;;5374401;26;20028;-61
2024/04/23 08:38:50;;;;;;;4.45;1.48;;;20.70;54.80;;;;;;5368075;26;20012;-61
2024/04/23 08:41:18;;;;;;;10.00;1.42;;;20.00;55.30;;;;;;5362261;26;20431;-61
2024/04/23 08:43:57;;;;;;;4.25;1.50;;;19.40;54.00;;;;;;5363364;26;20019;-61
2024/04/23 08:46:24;;;;;;;2.95;1.45;;;19.20;53.50;;;;;;5374184;26;20051;-61
2024/04/23 08:48:50;;;;;;;2.03;1.30;;;19.60;54.80;;;;;;5359781;26;20012;-61
2024/04/23 08:51:16;;;;;;;1.85;1.27;;;19.70;54.00;;;;;;5367314;26;20322;-62
2024/04/23 08:53:43;;;;;;;2.60;1.40;;;20.20;54.00;;;;;;5359902;26;20008;-61
2024/04/23 08:56:13;;;;;;;2.15;1.30;;;20.70;54.40;;;;;;5355543;26;20030;-61
2024/04/23 08:58:40;;;;;;;1.98;1.27;;;20.70;53.20;;;;;;5350722;26;20005;-61
2024/04/23 09:01:08;;;;;;;2.20;1.20;;;21.00;55.80;;;;;;5361363;26;20335;-62
2024/04/23 09:03:43;;;;;;;3.00;1.58;;;21.00;51.70;;;;;;5364843;26;20450;-62
2024/04/23 09:06:08;;;;;;;3.10;1.58;;;20.90;53.70;;;;;;5367153;26;20040;-61
2024/04/23 09:08:35;;;;;;;1.50;1.13;;;21.00;52.70;;;;;;5369368;26;20005;-61
2024/04/23 09:11:01;;;;;;;1.70;1.02;;;21.40;50.00;;;;;;5364475;26;20004;-61
2024/04/23 09:13:26;;;;;;;1.42;0.90;;;21.30;50.80;;;;;;5360556;26;20010;-62
2024/04/23 09:15:52;;;;;;;3.33;1.27;;;20.80;48.60;;;;;;5360748;26;20000;-61
2024/04/23 09:18:21;;;;;;;2.72;1.20;;;21.00;50.20;;;;;;5360273;26;20007;-61
2024/04/23 09:20:47;;;;;;;3.40;1.40;;;21.70;51.30;;;;;;5336592;26;20078;-62
2024/04/23 09:23:13;;;;;;;9.73;1.90;;;21.30;49.40;;;;;;5356709;26;20009;-62
2024/04/23 09:25:39;;;;;;;2.08;1.20;;;21.10;49.80;;;;;;5340497;26;20024;-62
2024/04/23 09:28:07;;;;;;;2.25;1.90;;;21.80;48.80;;;;;;5359612;26;20012;-62
2024/04/23 09:30:37;;;;;;;3.13;1.75;;;21.60;52.50;;;;;;5360235;26;20757;-61
2024/04/23 09:33:03;;;;;;;2.75;1.58;;;21.60;50.40;;;;;;5358779;26;19993;-61
2024/04/23 09:35:29;;;;;;;3.13;2.03;;;21.20;52.60;;;;;;5359970;26;20015;-62
2024/04/23 09:37:55;;;;;;;1.83;1.15;;;21.00;52.30;;;;;;5353001;26;20004;-62
2024/04/23 09:40:23;;;;;;;3.08;1.60;;;21.30;49.10;;;;;;5338725;26;20033;-62
2024/04/23 09:42:52;;;;;;;2.92;1.40;;;21.50;50.10;;;;;;5364444;26;20020;-62
2024/04/23 09:45:22;;;;;;;2.60;1.30;;;21.20;51.20;;;;;;5352318;26;20005;-62
2024/04/23 09:47:48;;;;;;;1.45;1.13;;;21.10;47.20;;;;;;5368010;26;20011;-62
2024/04/23 09:50:13;;;;;;;2.33;1.60;;;20.60;48.70;;;;;;5375144;26;20004;-62
2024/04/23 09:52:39;;;;;;;2.35;1.65;;;19.60;48.20;;;;;;5360802;26;20008;-62
2024/04/23 09:55:06;;;;;;;1.73;1.50;;;18.50;49.90;;;;;;5365590;26;20015;-61
2024/04/23 09:57:34;;;;;;;4.60;1.90;;;18.00;50.90;;;;;;5371847;26;19992;-62
2024/04/23 10:00:01;;;;;;;3.15;1.98;;;18.20;51.30;;;;;;5365733;26;20020;-62
2024/04/23 10:02:28;;;;;;;3.08;1.85;;;17.80;49.60;;;;;;5358750;26;20037;-63
2024/04/23 10:05:04;;;;;;;2.70;1.88;;;17.40;51.20;;;;;;5363982;26;20023;-61
2024/04/23 10:07:34;;;;;;;2.78;1.77;;;16.40;54.20;;;;;;5367743;26;20059;-62
2024/04/23 10:10:06;;;;;;;1.48;1.38;;;16.00;52.10;;;;;;5367548;26;20023;-61
2024/04/23 10:12:36;;;;;;;3.03;1.92;;;15.40;54.80;;;;;;5358662;26;20007;-61
2024/04/23 10:15:14;;;;;;;2.05;1.15;;;14.50;55.20;;;;;;5360379;26;20035;-61
2024/04/23 10:17:50;;;;;;;3.28;1.80;;;14.10;57.70;;;;;;5372448;26;20001;-62
2024/04/23 10:20:21;;;;;;;1.55;1.02;;;13.80;56.80;;;;;;5364349;26;20034;-61
2024/04/23 10:22:50;;;;;;;1.67;1.25;;;13.60;58.20;;;;;;5369111;26;20461;-61
2024/04/23 10:25:18;;;;;;;3.25;1.20;;;13.60;58.40;;;;;;5340167;26;20014;-61
2024/04/23 10:27:45;;;;;;;3.38;1.27;;;13.30;57.80;;;;;;5361308;26;20011;-61
2024/04/23 10:30:12;;;;;;;7.05;1.52;;;12.90;61.10;;;;;;5365997;26;20008;-61
2024/04/23 10:32:40;;;;;;;3.72;1.50;;;12.90;59.70;;;;;;5370277;26;20012;-62
2024/04/23 10:35:07;;;;;;;5.47;1.60;;;13.20;57.20;;;;;;5355924;26;20025;-60
2024/04/23 10:37:34;;;;;;;2.63;1.40;;;13.20;58.00;;;;;;5359362;26;20093;-60
2024/04/23 10:40:01;;;;;;;2.47;1.30;;;13.50;56.50;;;;;;5356674;26;20004;-62
2024/04/23 10:42:29;;;;;;;1.58;1.00;;;13.20;58.00;;;;;;5361018;26;20404;-61
2024/04/23 10:44:56;;;;;;;2.40;1.50;;;13.50;59.30;;;;;;5360898;26;20089;-61
2024/04/23 10:47:21;;;;;;;2.58;1.25;;;14.30;59.80;;;;;;5366739;26;20028;-61
2024/04/23 10:49:50;;;;;;;2.45;1.30;;;14.60;56.40;;;;;;5358518;26;20020;-61
2024/04/23 10:52:20;;;;;;;3.60;1.40;;;15.00;56.70;;;;;;5370279;26;20141;-61
2024/04/23 10:54:47;;;;;;;3.40;1.35;;;14.90;58.70;;;;;;5368796;26;20008;-61
2024/04/23 10:57:13;;;;;;;2.20;1.15;;;14.70;58.80;;;;;;5366269;26;20008;-61
2024/04/23 10:59:40;;;;;;;3.60;1.33;;;14.50;58.40;;;;;;5364013;26;19992;-60
2024/04/23 11:02:10;;;;;;;2.97;1.10;;;14.20;58.50;;;;;;5368088;26;20347;-61
2024/04/23 11:04:38;;;;;;;2.33;1.50;;;13.90;59.00;;;;;;5369687;26;20004;-61
2024/04/23 11:07:09;;;;;;;3.03;1.25;;;14.20;60.70;;;;;;5356697;26;20015;-61
2024/04/23 11:09:40;;;;;;;3.63;1.30;;;14.50;58.80;;;;;;5365389;26;20007;-61
2024/04/23 11:12:27;;;;;;;1.35;1.00;;;14.60;57.80;;;;;;5359072;26;20020;-61
2024/04/23 11:14:53;;;;;;;2.03;1.38;;;14.10;57.40;;;;;;5371584;26;20008;-61
2024/04/23 11:17:20;;;;;;;3.67;1.30;;;14.10;55.90;;;;;;5370196;26;19999;-61
2024/04/23 11:19:54;;;;;;;85.03;22.92;;;14.90;55.50;;;;;;5370420;26;20011;-60
2024/04/23 11:22:50;;;;;;;35.33;8.90;;;14.90;56.60;;;;;;5360233;26;20011;-61
2024/04/23 11:25:32;;;;;;;17.50;6.00;;;14.50;57.90;;;;;;5304873;26;20023;-61
2024/04/23 11:27:59;;;;;;;3.08;1.70;;;14.80;58.30;;;;;;5356084;26;20000;-61
2024/04/23 11:30:25;;;;;;;1.98;1.33;;;15.30;57.50;;;;;;5360293;26;20000;-65
2024/04/23 11:32:53;;;;;;;3.10;1.10;;;15.30;53.80;;;;;;5366009;26;20004;-64
2024/04/23 11:35:20;;;;;;;3.75;1.23;;;14.80;56.00;;;;;;5368616;26;20045;-61
2024/04/23 11:37:45;;;;;;;1.88;1.67;;;14.80;57.50;;;;;;5374290;26;20012;-61
2024/04/23 11:40:11;;;;;;;2.22;1.35;;;14.50;58.10;;;;;;5366622;26;20000;-61
2024/04/23 11:42:36;;;;;;;2.83;1.45;;;14.00;59.10;;;;;;5364520;26;20075;-61
2024/04/23 11:45:04;;;;;;;3.08;1.50;;;14.00;58.30;;;;;;5374304;26;20393;-61
2024/04/23 11:47:30;;;;;;;2.28;1.73;;;13.90;60.20;;;;;;5374735;26;20001;-62
2024/04/23 11:49:59;;;;;;;1.58;1.23;;;13.90;60.60;;;;;;5357442;26;20016;-62
2024/04/23 11:52:26;;;;;;;1.70;1.23;;;13.80;59.90;;;;;;5372335;26;20019;-61
2024/04/23 11:54:52;;;;;;;2.30;1.50;;;13.70;58.60;;;;;;5371259;26;20036;-61
2024/04/23 11:57:18;;;;;;;1.77;1.02;;;13.80;59.90;;;;;;5370388;26;20078;-61
2024/04/23 11:59:49;;;;;;;3.40;1.50;;;13.90;57.50;;;;;;5366476;26;20000;-61
2024/04/23 12:02:14;;;;;;;6.25;1.70;;;13.70;57.60;;;;;;5377588;26;20008;-63
2024/04/23 12:04:41;;;;;;;2.95;1.55;;;13.90;57.30;;;;;;5363357;26;19996;-61
2024/04/23 12:07:09;;;;;;;3.15;1.77;;;14.00;56.30;;;;;;5360301;26;20012;-61
2024/04/23 12:09:35;;;;;;;3.85;2.00;;;13.90;57.50;;;;;;5364504;26;20005;-61
2024/04/23 12:12:00;;;;;;;4.75;2.47;;;13.80;57.80;;;;;;5382028;26;20000;-61
2024/04/23 12:14:28;;;;;;;2.63;1.40;;;14.30;57.20;;;;;;5375226;26;19996;-61
2024/04/23 12:16:54;;;;;;;2.78;1.42;;;14.40;57.10;;;;;;5378539;26;20000;-63
2024/04/23 12:19:20;;;;;;;2.60;1.38;;;14.30;57.30;;;;;;5361366;26;20051;-61
2024/04/23 12:21:46;;;;;;;2.60;1.45;;;14.30;59.40;;;;;;5369750;26;20015;-63
2024/04/23 12:24:15;;;;;;;3.75;1.63;;;14.10;59.20;;;;;;5365178;26;20001;-61
2024/04/23 12:26:41;;;;;;;3.55;1.73;;;14.40;58.50;;;;;;5348231;26;20008;-60
2024/04/23 12:29:08;;;;;;;4.75;1.80;;;14.40;58.10;;;;;;5362636;26;20008;-60
2024/04/23 12:31:33;;;;;;;2.85;1.30;;;14.10;57.10;;;;;;5372621;26;19996;-61
2024/04/23 12:33:59;;;;;;;5.20;1.90;;;13.70;57.90;;;;;;5359191;26;20016;-60
2024/04/23 12:36:26;;;;;;;3.65;1.73;;;13.60;58.50;;;;;;5376632;26;20019;-60
2024/04/23 12:38:52;;;;;;;3.03;1.67;;;13.60;60.50;;;;;;5385972;26;20031;-60
2024/04/23 12:41:19;;;;;;;2.85;1.55;;;14.00;59.40;;;;;;5371049;26;20367;-60
2024/04/23 12:43:46;;;;;;;2.42;1.40;;;14.00;58.30;;;;;;5365941;26;20013;-60
2024/04/23 12:46:12;;;;;;;6.03;2.25;;;13.90;60.00;;;;;;5361292;26;20006;-60
2024/04/23 12:48:39;;;;;;;1.77;1.48;;;13.90;59.00;;;;;;5364587;26;20001;-60
2024/04/23 12:51:05;;;;;;;3.40;1.73;;;14.00;59.60;;;;;;5365677;26;20008;-60
2024/04/23 12:53:30;;;;;;;5.03;2.08;;;14.00;60.20;;;;;;5364443;26;20019;-60